sensor_id;sensor_type;location;lat;lon;timestamp;temperature;humidity
22716;DHT22;11525;51.152;4.456;2023-08-06T00:00:25;15.70;99.90
22716;DHT22;11525;51.152;4.456;2023-08-06T00:02:51;15.70;99.90
22716;DHT22;11525;51.152;4.456;2023-08-06T00:05:17;15.70;99.90
22716;DHT22;11525;51.152;4.456;2023-08-06T00:07:48;15.70;99.90
22716;DHT22;11525;51.152;4.456;2023-08-06T00:10:15;15.80;99.90
22716;DHT22;11525;51.152;4.456;2023-08-06T00:12:40;15.70;99.90
22716;DHT22;11525;51.152;4.456;2023-08-06T00:15:07;15.50;99.90
22716;DHT22;11525;51.152;4.456;2023-08-06T00:17:33;15.60;99.90
22716;DHT22;11525;51.152;4.456;2023-08-06T00:19:59;15.70;99.90
22716;DHT22;11525;51.152;4.456;2023-08-06T00:22:31;15.70;99.90
22716;DHT22;11525;51.152;4.456;2023-08-06T00:24:57;15.70;99.90
22716;DHT22;11525;51.152;4.456;2023-08-06T00:27:23;15.70;99.90
22716;DHT22;11525;51.152;4.456;2023-08-06T00:29:49;15.70;99.90
22716;DHT22;11525;51.152;4.456;2023-08-06T00:32:15;15.60;99.90
22716;DHT22;11525;51.152;4.456;2023-08-06T00:34:40;15.50;99.90
22716;DHT22;11525;51.152;4.456;2023-08-06T00:37:06;15.50;99.90
22716;DHT22;11525;51.152;4.456;2023-08-06T00:39:31;15.40;99.90
22716;DHT22;11525;51.152;4.456;2023-08-06T00:41:57;15.50;99.90
22716;DHT22;11525;51.152;4.456;2023-08-06T00:44:24;15.60;99.90
22716;DHT22;11525;51.152;4.456;2023-08-06T00:46:50;15.50;99.90
22716;DHT22;11525;51.152;4.456;2023-08-06T00:49:15;15.50;99.90
22716;DHT22;11525;51.152;4.456;2023-08-06T00:51:42;15.60;99.90
22716;DHT22;11525;51.152;4.456;2023-08-06T00:54:09;15.60;99.90
22716;DHT22;11525;51.152;4.456;2023-08-06T00:56:35;15.70;99.90
22716;DHT22;11525;51.152;4.456;2023-08-06T00:59:01;15.70;99.90
22716;DHT22;11525;51.152;4.456;2023-08-06T01:01:28;15.80;99.90
22716;DHT22;11525;51.152;4.456;2023-08-06T01:03:54;15.80;99.90
22716;DHT22;11525;51.152;4.456;2023-08-06T01:06:29;15.70;99.90
22716;DHT22;11525;51.152;4.456;2023-08-06T01:09:09;15.70;99.90
22716;DHT22;11525;51.152;4.456;2023-08-06T01:12:03;15.60;99.90
22716;DHT22;11525;51.152;4.456;2023-08-06T01:14:43;15.60;99.90
22716;DHT22;11525;51.152;4.456;2023-08-06T01:17:12;15.60;99.90
22716;DHT22;11525;51.152;4.456;2023-08-06T01:19:39;15.60;99.90
22716;DHT22;11525;51.152;4.456;2023-08-06T01:22:05;15.60;99.90
22716;DHT22;11525;51.152;4.456;2023-08-06T01:24:30;15.70;99.90
22716;DHT22;11525;51.152;4.456;2023-08-06T01:32:03;15.70;99.90
22716;DHT22;11525;51.152;4.456;2023-08-06T01:34:33;15.70;99.90
22716;DHT22;11525;51.152;4.456;2023-08-06T01:37:00;15.70;99.90
22716;DHT22;11525;51.152;4.456;2023-08-06T01:39:26;15.60;99.90
22716;DHT22;11525;51.152;4.456;2023-08-06T01:41:52;15.50;99.90
22716;DHT22;11525;51.152;4.456;2023-08-06T01:44:18;15.60;99.90
22716;DHT22;11525;51.152;4.456;2023-08-06T01:46:43;15.60;99.90
22716;DHT22;11525;51.152;4.456;2023-08-06T01:49:09;15.60;99.90
22716;DHT22;11525;51.152;4.456;2023-08-06T01:51:34;15.70;99.90
22716;DHT22;11525;51.152;4.456;2023-08-06T01:54:00;15.80;99.90
22716;DHT22;11525;51.152;4.456;2023-08-06T01:56:26;15.80;99.90
22716;DHT22;11525;51.152;4.456;2023-08-06T01:58:51;15.90;99.90
22716;DHT22;11525;51.152;4.456;2023-08-06T02:01:17;15.90;99.90
22716;DHT22;11525;51.152;4.456;2023-08-06T02:03:43;16.00;99.90
22716;DHT22;11525;51.152;4.456;2023-08-06T02:06:08;16.10;99.90
22716;DHT22;11525;51.152;4.456;2023-08-06T02:08:34;16.20;99.90
22716;DHT22;11525;51.152;4.456;2023-08-06T02:11:00;16.20;99.90
22716;DHT22;11525;51.152;4.456;2023-08-06T02:13:26;16.20;99.90
22716;DHT22;11525;51.152;4.456;2023-08-06T02:15:51;16.30;99.90
22716;DHT22;11525;51.152;4.456;2023-08-06T02:18:17;16.20;99.90
22716;DHT22;11525;51.152;4.456;2023-08-06T02:20:43;16.30;99.90
22716;DHT22;11525;51.152;4.456;2023-08-06T02:23:09;16.20;99.90
22716;DHT22;11525;51.152;4.456;2023-08-06T02:25:35;16.10;99.90
22716;DHT22;11525;51.152;4.456;2023-08-06T02:28:00;16.10;99.90
22716;DHT22;11525;51.152;4.456;2023-08-06T02:30:26;16.20;99.90
22716;DHT22;11525;51.152;4.456;2023-08-06T02:32:52;16.30;99.90
22716;DHT22;11525;51.152;4.456;2023-08-06T02:35:18;16.20;99.90
22716;DHT22;11525;51.152;4.456;2023-08-06T02:37:43;16.30;99.90
22716;DHT22;11525;51.152;4.456;2023-08-06T02:40:09;16.20;99.90
22716;DHT22;11525;51.152;4.456;2023-08-06T02:42:35;16.20;99.90
22716;DHT22;11525;51.152;4.456;2023-08-06T02:45:00;16.30;99.90
22716;DHT22;11525;51.152;4.456;2023-08-06T02:47:26;16.30;99.90
22716;DHT22;11525;51.152;4.456;2023-08-06T02:49:52;16.40;99.90
22716;DHT22;11525;51.152;4.456;2023-08-06T02:52:18;16.40;99.90
22716;DHT22;11525;51.152;4.456;2023-08-06T02:54:43;16.40;99.90
22716;DHT22;11525;51.152;4.456;2023-08-06T02:57:09;16.40;99.90
22716;DHT22;11525;51.152;4.456;2023-08-06T02:59:35;16.50;99.90
22716;DHT22;11525;51.152;4.456;2023-08-06T03:02:00;16.50;99.90
22716;DHT22;11525;51.152;4.456;2023-08-06T03:04:26;16.40;99.90
22716;DHT22;11525;51.152;4.456;2023-08-06T03:06:52;16.40;99.90
22716;DHT22;11525;51.152;4.456;2023-08-06T03:09:18;16.40;99.90
22716;DHT22;11525;51.152;4.456;2023-08-06T03:11:44;16.30;99.90
22716;DHT22;11525;51.152;4.456;2023-08-06T03:14:09;16.30;99.90
22716;DHT22;11525;51.152;4.456;2023-08-06T03:16:35;16.30;99.90
22716;DHT22;11525;51.152;4.456;2023-08-06T03:19:01;16.20;99.90
22716;DHT22;11525;51.152;4.456;2023-08-06T03:21:26;16.20;99.90
22716;DHT22;11525;51.152;4.456;2023-08-06T03:23:52;16.10;99.90
22716;DHT22;11525;51.152;4.456;2023-08-06T03:26:18;16.10;99.90
22716;DHT22;11525;51.152;4.456;2023-08-06T03:28:43;16.10;99.90
22716;DHT22;11525;51.152;4.456;2023-08-06T03:31:09;16.00;99.90
22716;DHT22;11525;51.152;4.456;2023-08-06T03:33:35;16.00;99.90
22716;DHT22;11525;51.152;4.456;2023-08-06T03:36:01;16.10;99.90
22716;DHT22;11525;51.152;4.456;2023-08-06T03:38:26;16.10;99.90
22716;DHT22;11525;51.152;4.456;2023-08-06T03:40:53;16.10;99.90
22716;DHT22;11525;51.152;4.456;2023-08-06T03:43:19;16.10;99.90
22716;DHT22;11525;51.152;4.456;2023-08-06T03:45:44;16.10;99.90
22716;DHT22;11525;51.152;4.456;2023-08-06T03:48:10;16.10;99.90
22716;DHT22;11525;51.152;4.456;2023-08-06T03:50:36;16.20;99.90
22716;DHT22;11525;51.152;4.456;2023-08-06T03:53:02;16.00;99.90
22716;DHT22;11525;51.152;4.456;2023-08-06T03:55:28;15.90;99.90
22716;DHT22;11525;51.152;4.456;2023-08-06T03:57:53;15.90;99.90
22716;DHT22;11525;51.152;4.456;2023-08-06T04:00:19;15.90;99.90
22716;DHT22;11525;51.152;4.456;2023-08-06T04:02:44;15.80;99.90
22716;DHT22;11525;51.152;4.456;2023-08-06T04:05:10;15.70;99.90
22716;DHT22;11525;51.152;4.456;2023-08-06T04:07:36;15.60;99.90
22716;DHT22;11525;51.152;4.456;2023-08-06T04:10:03;15.60;99.90
22716;DHT22;11525;51.152;4.456;2023-08-06T04:12:29;15.50;99.90
22716;DHT22;11525;51.152;4.456;2023-08-06T04:14:57;15.50;99.90
22716;DHT22;11525;51.152;4.456;2023-08-06T04:17:23;15.50;99.90
22716;DHT22;11525;51.152;4.456;2023-08-06T04:19:51;15.50;99.90
22716;DHT22;11525;51.152;4.456;2023-08-06T04:22:17;15.40;99.90
22716;DHT22;11525;51.152;4.456;2023-08-06T04:24:43;15.30;99.90
22716;DHT22;11525;51.152;4.456;2023-08-06T04:27:09;15.40;99.90
22716;DHT22;11525;51.152;4.456;2023-08-06T04:29:35;15.50;99.90
22716;DHT22;11525;51.152;4.456;2023-08-06T04:32:01;15.40;99.90
22716;DHT22;11525;51.152;4.456;2023-08-06T04:34:27;15.40;99.90
22716;DHT22;11525;51.152;4.456;2023-08-06T04:36:52;15.30;99.90
22716;DHT22;11525;51.152;4.456;2023-08-06T04:39:18;15.20;99.90
22716;DHT22;11525;51.152;4.456;2023-08-06T04:41:44;15.00;99.90
22716;DHT22;11525;51.152;4.456;2023-08-06T04:44:10;15.00;99.90
22716;DHT22;11525;51.152;4.456;2023-08-06T04:46:35;14.90;99.90
22716;DHT22;11525;51.152;4.456;2023-08-06T04:49:01;14.70;99.90
22716;DHT22;11525;51.152;4.456;2023-08-06T04:51:26;14.60;99.90
22716;DHT22;11525;51.152;4.456;2023-08-06T04:53:52;14.50;99.90
22716;DHT22;11525;51.152;4.456;2023-08-06T04:56:18;14.40;99.90
22716;DHT22;11525;51.152;4.456;2023-08-06T04:58:44;14.40;99.90
22716;DHT22;11525;51.152;4.456;2023-08-06T05:01:09;14.40;99.90
22716;DHT22;11525;51.152;4.456;2023-08-06T05:03:35;14.40;99.90
22716;DHT22;11525;51.152;4.456;2023-08-06T05:06:00;14.40;99.90
22716;DHT22;11525;51.152;4.456;2023-08-06T05:08:26;14.50;99.90
22716;DHT22;11525;51.152;4.456;2023-08-06T05:10:52;14.50;99.90
22716;DHT22;11525;51.152;4.456;2023-08-06T05:13:17;14.60;99.90
22716;DHT22;11525;51.152;4.456;2023-08-06T05:15:43;14.60;99.90
22716;DHT22;11525;51.152;4.456;2023-08-06T05:18:10;14.60;99.90
22716;DHT22;11525;51.152;4.456;2023-08-06T05:20:38;14.60;99.90
22716;DHT22;11525;51.152;4.456;2023-08-06T05:23:04;14.50;99.90
22716;DHT22;11525;51.152;4.456;2023-08-06T05:25:30;14.50;99.90
22716;DHT22;11525;51.152;4.456;2023-08-06T05:27:55;14.50;99.90
22716;DHT22;11525;51.152;4.456;2023-08-06T05:30:21;14.60;99.90
22716;DHT22;11525;51.152;4.456;2023-08-06T05:32:46;14.60;99.90
22716;DHT22;11525;51.152;4.456;2023-08-06T05:35:12;14.70;99.90
22716;DHT22;11525;51.152;4.456;2023-08-06T05:37:38;14.70;99.90
22716;DHT22;11525;51.152;4.456;2023-08-06T05:40:04;14.80;99.90
22716;DHT22;11525;51.152;4.456;2023-08-06T05:42:30;14.80;99.90
22716;DHT22;11525;51.152;4.456;2023-08-06T05:44:55;14.80;99.90
22716;DHT22;11525;51.152;4.456;2023-08-06T05:47:21;14.80;99.90
22716;DHT22;11525;51.152;4.456;2023-08-06T05:49:47;14.80;99.90
22716;DHT22;11525;51.152;4.456;2023-08-06T05:52:12;14.80;99.90
22716;DHT22;11525;51.152;4.456;2023-08-06T05:54:38;14.80;99.90
22716;DHT22;11525;51.152;4.456;2023-08-06T05:57:06;14.70;99.90
22716;DHT22;11525;51.152;4.456;2023-08-06T05:59:32;14.70;99.90
22716;DHT22;11525;51.152;4.456;2023-08-06T06:01:57;14.80;99.90
22716;DHT22;11525;51.152;4.456;2023-08-06T06:04:23;14.80;99.90
22716;DHT22;11525;51.152;4.456;2023-08-06T06:06:49;14.80;99.90
22716;DHT22;11525;51.152;4.456;2023-08-06T06:09:14;14.80;99.90
22716;DHT22;11525;51.152;4.456;2023-08-06T06:11:40;14.80;99.90
22716;DHT22;11525;51.152;4.456;2023-08-06T06:14:05;14.80;99.90
22716;DHT22;11525;51.152;4.456;2023-08-06T06:16:31;14.80;99.90
22716;DHT22;11525;51.152;4.456;2023-08-06T06:18:57;14.80;99.90
22716;DHT22;11525;51.152;4.456;2023-08-06T06:21:26;14.90;99.90
22716;DHT22;11525;51.152;4.456;2023-08-06T06:23:51;14.70;99.90
22716;DHT22;11525;51.152;4.456;2023-08-06T06:26:18;14.70;99.90
22716;DHT22;11525;51.152;4.456;2023-08-06T06:28:44;14.80;99.90
22716;DHT22;11525;51.152;4.456;2023-08-06T06:31:10;14.80;99.90
22716;DHT22;11525;51.152;4.456;2023-08-06T06:33:36;14.80;99.90
22716;DHT22;11525;51.152;4.456;2023-08-06T06:36:02;14.70;99.90
22716;DHT22;11525;51.152;4.456;2023-08-06T06:38:30;14.80;99.90
22716;DHT22;11525;51.152;4.456;2023-08-06T06:40:56;14.90;99.90
22716;DHT22;11525;51.152;4.456;2023-08-06T06:43:23;14.90;99.90
22716;DHT22;11525;51.152;4.456;2023-08-06T06:45:59;14.90;99.90
22716;DHT22;11525;51.152;4.456;2023-08-06T06:48:29;14.90;99.90
22716;DHT22;11525;51.152;4.456;2023-08-06T06:50:55;14.90;99.90
22716;DHT22;11525;51.152;4.456;2023-08-06T06:53:21;14.90;99.90
22716;DHT22;11525;51.152;4.456;2023-08-06T06:56:05;14.90;99.90
22716;DHT22;11525;51.152;4.456;2023-08-06T06:58:31;14.90;99.90
22716;DHT22;11525;51.152;4.456;2023-08-06T07:00:57;15.00;99.90
22716;DHT22;11525;51.152;4.456;2023-08-06T07:03:22;15.10;99.90
22716;DHT22;11525;51.152;4.456;2023-08-06T07:05:49;15.20;99.90
22716;DHT22;11525;51.152;4.456;2023-08-06T07:08:15;15.30;99.90
22716;DHT22;11525;51.152;4.456;2023-08-06T07:10:41;15.20;99.90
22716;DHT22;11525;51.152;4.456;2023-08-06T07:13:07;15.10;99.90
22716;DHT22;11525;51.152;4.456;2023-08-06T07:15:33;15.10;99.90
22716;DHT22;11525;51.152;4.456;2023-08-06T07:17:58;15.20;99.90
22716;DHT22;11525;51.152;4.456;2023-08-06T07:20:24;15.10;99.90
22716;DHT22;11525;51.152;4.456;2023-08-06T07:22:50;15.10;99.90
22716;DHT22;11525;51.152;4.456;2023-08-06T07:25:16;15.40;99.90
22716;DHT22;11525;51.152;4.456;2023-08-06T07:27:42;15.40;99.90
22716;DHT22;11525;51.152;4.456;2023-08-06T07:30:08;15.40;99.90
22716;DHT22;11525;51.152;4.456;2023-08-06T07:32:34;15.50;99.90
22716;DHT22;11525;51.152;4.456;2023-08-06T07:34:59;15.60;99.90
22716;DHT22;11525;51.152;4.456;2023-08-06T07:37:26;15.70;99.90
22716;DHT22;11525;51.152;4.456;2023-08-06T07:39:55;15.80;99.90
22716;DHT22;11525;51.152;4.456;2023-08-06T07:42:21;15.80;99.90
22716;DHT22;11525;51.152;4.456;2023-08-06T07:44:58;15.80;99.90
22716;DHT22;11525;51.152;4.456;2023-08-06T07:47:24;15.80;99.90
22716;DHT22;11525;51.152;4.456;2023-08-06T07:49:50;15.80;99.90
22716;DHT22;11525;51.152;4.456;2023-08-06T07:52:16;15.90;99.90
22716;DHT22;11525;51.152;4.456;2023-08-06T07:54:42;16.00;99.90
22716;DHT22;11525;51.152;4.456;2023-08-06T07:57:07;16.10;99.90
22716;DHT22;11525;51.152;4.456;2023-08-06T07:59:33;16.10;99.90
22716;DHT22;11525;51.152;4.456;2023-08-06T08:01:59;16.10;99.90
22716;DHT22;11525;51.152;4.456;2023-08-06T08:04:25;16.10;99.90
22716;DHT22;11525;51.152;4.456;2023-08-06T08:06:51;16.10;99.90
22716;DHT22;11525;51.152;4.456;2023-08-06T08:09:16;16.00;99.90
22716;DHT22;11525;51.152;4.456;2023-08-06T08:11:42;16.10;99.90
22716;DHT22;11525;51.152;4.456;2023-08-06T08:14:08;16.10;99.90
22716;DHT22;11525;51.152;4.456;2023-08-06T08:16:33;15.90;99.90
22716;DHT22;11525;51.152;4.456;2023-08-06T08:18:59;16.20;99.90
22716;DHT22;11525;51.152;4.456;2023-08-06T08:21:25;16.30;99.90
22716;DHT22;11525;51.152;4.456;2023-08-06T08:23:51;16.20;99.90
22716;DHT22;11525;51.152;4.456;2023-08-06T08:26:17;16.10;99.90
22716;DHT22;11525;51.152;4.456;2023-08-06T08:28:43;15.90;99.90
22716;DHT22;11525;51.152;4.456;2023-08-06T08:31:09;15.60;99.90
22716;DHT22;11525;51.152;4.456;2023-08-06T08:33:35;15.50;99.90
22716;DHT22;11525;51.152;4.456;2023-08-06T08:36:00;15.50;99.90
22716;DHT22;11525;51.152;4.456;2023-08-06T08:38:26;15.60;99.90
22716;DHT22;11525;51.152;4.456;2023-08-06T08:40:53;15.80;99.90
22716;DHT22;11525;51.152;4.456;2023-08-06T08:43:22;16.00;99.90
22716;DHT22;11525;51.152;4.456;2023-08-06T08:45:53;16.30;99.90
22716;DHT22;11525;51.152;4.456;2023-08-06T08:48:21;16.50;99.90
22716;DHT22;11525;51.152;4.456;2023-08-06T08:50:49;16.40;99.90
22716;DHT22;11525;51.152;4.456;2023-08-06T08:53:16;16.50;99.90
22716;DHT22;11525;51.152;4.456;2023-08-06T08:55:43;16.70;99.90
22716;DHT22;11525;51.152;4.456;2023-08-06T08:58:10;16.60;99.90
22716;DHT22;11525;51.152;4.456;2023-08-06T09:00:36;16.80;99.90
22716;DHT22;11525;51.152;4.456;2023-08-06T09:03:02;17.00;99.90
22716;DHT22;11525;51.152;4.456;2023-08-06T09:05:30;16.70;99.90
22716;DHT22;11525;51.152;4.456;2023-08-06T09:08:05;16.40;99.90
22716;DHT22;11525;51.152;4.456;2023-08-06T09:10:31;16.30;99.90
22716;DHT22;11525;51.152;4.456;2023-08-06T09:12:57;16.60;99.90
22716;DHT22;11525;51.152;4.456;2023-08-06T09:15:27;16.80;99.90
22716;DHT22;11525;51.152;4.456;2023-08-06T09:17:53;16.70;99.90
22716;DHT22;11525;51.152;4.456;2023-08-06T09:20:19;16.40;99.90
22716;DHT22;11525;51.152;4.456;2023-08-06T09:22:45;16.40;99.90
22716;DHT22;11525;51.152;4.456;2023-08-06T09:25:23;16.30;99.90
22716;DHT22;11525;51.152;4.456;2023-08-06T09:27:51;16.10;99.90
22716;DHT22;11525;51.152;4.456;2023-08-06T09:30:30;15.80;99.90
22716;DHT22;11525;51.152;4.456;2023-08-06T09:32:57;15.80;99.90
22716;DHT22;11525;51.152;4.456;2023-08-06T09:35:22;15.80;99.90
22716;DHT22;11525;51.152;4.456;2023-08-06T09:37:48;15.80;99.90
22716;DHT22;11525;51.152;4.456;2023-08-06T09:40:27;15.60;99.90
22716;DHT22;11525;51.152;4.456;2023-08-06T09:42:53;15.50;99.90
22716;DHT22;11525;51.152;4.456;2023-08-06T09:45:19;15.40;99.90
22716;DHT22;11525;51.152;4.456;2023-08-06T09:47:44;15.50;99.90
22716;DHT22;11525;51.152;4.456;2023-08-06T09:50:20;15.40;99.90
22716;DHT22;11525;51.152;4.456;2023-08-06T09:52:50;15.40;99.90
22716;DHT22;11525;51.152;4.456;2023-08-06T09:55:18;15.30;99.90
22716;DHT22;11525;51.152;4.456;2023-08-06T09:57:44;15.20;99.90
22716;DHT22;11525;51.152;4.456;2023-08-06T10:00:11;15.10;99.90
22716;DHT22;11525;51.152;4.456;2023-08-06T10:02:37;15.10;99.90
22716;DHT22;11525;51.152;4.456;2023-08-06T10:05:07;15.10;99.90
22716;DHT22;11525;51.152;4.456;2023-08-06T10:07:34;15.20;99.90
22716;DHT22;11525;51.152;4.456;2023-08-06T10:10:00;15.20;99.90
22716;DHT22;11525;51.152;4.456;2023-08-06T10:12:28;15.30;99.90
22716;DHT22;11525;51.152;4.456;2023-08-06T10:14:57;15.30;99.90
22716;DHT22;11525;51.152;4.456;2023-08-06T10:17:24;15.20;99.90
22716;DHT22;11525;51.152;4.456;2023-08-06T10:19:51;15.30;99.90
22716;DHT22;11525;51.152;4.456;2023-08-06T10:22:20;15.40;99.90
22716;DHT22;11525;51.152;4.456;2023-08-06T10:24:56;15.60;99.90
22716;DHT22;11525;51.152;4.456;2023-08-06T10:27:32;15.70;99.90
22716;DHT22;11525;51.152;4.456;2023-08-06T10:32:50;15.90;99.90
22716;DHT22;11525;51.152;4.456;2023-08-06T10:35:41;15.70;99.90
22716;DHT22;11525;51.152;4.456;2023-08-06T10:38:11;15.50;99.90
22716;DHT22;11525;51.152;4.456;2023-08-06T10:40:40;15.40;99.90
22716;DHT22;11525;51.152;4.456;2023-08-06T10:43:06;15.50;99.90
22716;DHT22;11525;51.152;4.456;2023-08-06T10:45:37;15.50;99.90
22716;DHT22;11525;51.152;4.456;2023-08-06T10:48:04;15.70;99.90
22716;DHT22;11525;51.152;4.456;2023-08-06T10:50:30;15.60;99.90
22716;DHT22;11525;51.152;4.456;2023-08-06T10:52:57;15.70;99.90
22716;DHT22;11525;51.152;4.456;2023-08-06T10:55:29;15.60;99.90
22716;DHT22;11525;51.152;4.456;2023-08-06T10:57:55;15.90;99.90
22716;DHT22;11525;51.152;4.456;2023-08-06T11:00:24;15.90;99.90
22716;DHT22;11525;51.152;4.456;2023-08-06T11:02:51;16.00;99.90
22716;DHT22;11525;51.152;4.456;2023-08-06T11:05:18;16.20;99.90
22716;DHT22;11525;51.152;4.456;2023-08-06T11:07:43;16.40;99.90
22716;DHT22;11525;51.152;4.456;2023-08-06T11:10:12;16.20;99.90
22716;DHT22;11525;51.152;4.456;2023-08-06T11:12:38;16.20;99.90
22716;DHT22;11525;51.152;4.456;2023-08-06T11:15:05;16.00;99.90
22716;DHT22;11525;51.152;4.456;2023-08-06T11:17:32;16.10;99.90
22716;DHT22;11525;51.152;4.456;2023-08-06T11:20:03;16.40;99.90
22716;DHT22;11525;51.152;4.456;2023-08-06T11:22:29;16.40;99.90
22716;DHT22;11525;51.152;4.456;2023-08-06T11:24:55;16.70;99.90
22716;DHT22;11525;51.152;4.456;2023-08-06T11:27:21;16.90;99.90
22716;DHT22;11525;51.152;4.456;2023-08-06T11:29:47;17.00;99.90
22716;DHT22;11525;51.152;4.456;2023-08-06T11:32:12;17.00;99.90
22716;DHT22;11525;51.152;4.456;2023-08-06T11:34:40;17.00;99.90
22716;DHT22;11525;51.152;4.456;2023-08-06T11:37:07;17.00;99.90
22716;DHT22;11525;51.152;4.456;2023-08-06T11:39:36;16.90;99.90
22716;DHT22;11525;51.152;4.456;2023-08-06T11:42:04;16.80;99.90
22716;DHT22;11525;51.152;4.456;2023-08-06T11:44:31;16.70;99.90
22716;DHT22;11525;51.152;4.456;2023-08-06T11:47:00;16.70;99.90
22716;DHT22;11525;51.152;4.456;2023-08-06T11:52:24;16.70;99.90
22716;DHT22;11525;51.152;4.456;2023-08-06T11:55:04;16.60;99.90
22716;DHT22;11525;51.152;4.456;2023-08-06T11:57:36;16.50;99.90
22716;DHT22;11525;51.152;4.456;2023-08-06T12:00:05;16.50;99.90
22716;DHT22;11525;51.152;4.456;2023-08-06T12:02:32;16.60;99.90
22716;DHT22;11525;51.152;4.456;2023-08-06T12:05:12;16.30;99.90
22716;DHT22;11525;51.152;4.456;2023-08-06T12:07:43;16.20;99.90
22716;DHT22;11525;51.152;4.456;2023-08-06T12:10:09;16.20;99.90
22716;DHT22;11525;51.152;4.456;2023-08-06T12:12:35;16.10;99.90
22716;DHT22;11525;51.152;4.456;2023-08-06T12:15:03;16.00;99.90
22716;DHT22;11525;51.152;4.456;2023-08-06T12:17:28;16.00;99.90
22716;DHT22;11525;51.152;4.456;2023-08-06T12:19:54;16.00;99.90
22716;DHT22;11525;51.152;4.456;2023-08-06T12:22:20;15.80;99.90
22716;DHT22;11525;51.152;4.456;2023-08-06T12:24:46;15.80;99.90
22716;DHT22;11525;51.152;4.456;2023-08-06T12:27:14;15.80;99.90
22716;DHT22;11525;51.152;4.456;2023-08-06T12:29:42;15.90;99.90
22716;DHT22;11525;51.152;4.456;2023-08-06T12:32:09;15.60;99.90
22716;DHT22;11525;51.152;4.456;2023-08-06T12:34:35;15.70;99.90
22716;DHT22;11525;51.152;4.456;2023-08-06T12:37:02;15.90;99.90
22716;DHT22;11525;51.152;4.456;2023-08-06T12:39:27;16.00;99.90
22716;DHT22;11525;51.152;4.456;2023-08-06T12:41:55;16.00;99.90
22716;DHT22;11525;51.152;4.456;2023-08-06T12:44:21;16.00;99.90
22716;DHT22;11525;51.152;4.456;2023-08-06T12:46:46;16.00;99.90
22716;DHT22;11525;51.152;4.456;2023-08-06T12:49:12;16.10;99.90
22716;DHT22;11525;51.152;4.456;2023-08-06T12:51:38;16.30;99.90
22716;DHT22;11525;51.152;4.456;2023-08-06T12:54:04;16.10;99.90
22716;DHT22;11525;51.152;4.456;2023-08-06T12:56:29;15.90;99.90
22716;DHT22;11525;51.152;4.456;2023-08-06T12:58:55;15.90;99.90
22716;DHT22;11525;51.152;4.456;2023-08-06T13:01:20;15.80;99.90
22716;DHT22;11525;51.152;4.456;2023-08-06T13:03:46;15.90;99.90
22716;DHT22;11525;51.152;4.456;2023-08-06T13:06:12;15.80;99.90
22716;DHT22;11525;51.152;4.456;2023-08-06T13:08:37;15.60;99.90
22716;DHT22;11525;51.152;4.456;2023-08-06T13:11:04;15.50;99.90
22716;DHT22;11525;51.152;4.456;2023-08-06T13:13:30;15.40;99.90
22716;DHT22;11525;51.152;4.456;2023-08-06T13:15:56;15.30;99.90
22716;DHT22;11525;51.152;4.456;2023-08-06T13:18:21;15.20;99.90
22716;DHT22;11525;51.152;4.456;2023-08-06T13:20:47;15.20;99.90
22716;DHT22;11525;51.152;4.456;2023-08-06T13:23:15;15.20;99.90
22716;DHT22;11525;51.152;4.456;2023-08-06T13:25:42;15.10;99.90
22716;DHT22;11525;51.152;4.456;2023-08-06T13:28:08;15.10;99.90
22716;DHT22;11525;51.152;4.456;2023-08-06T13:30:33;15.10;99.90
22716;DHT22;11525;51.152;4.456;2023-08-06T13:33:08;14.90;99.90
22716;DHT22;11525;51.152;4.456;2023-08-06T13:35:33;14.90;99.90
22716;DHT22;11525;51.152;4.456;2023-08-06T13:37:59;15.00;99.90
22716;DHT22;11525;51.152;4.456;2023-08-06T13:40:28;15.00;99.90
22716;DHT22;11525;51.152;4.456;2023-08-06T13:42:54;15.00;99.90
22716;DHT22;11525;51.152;4.456;2023-08-06T13:45:19;14.90;99.90
22716;DHT22;11525;51.152;4.456;2023-08-06T13:47:45;14.90;99.90
22716;DHT22;11525;51.152;4.456;2023-08-06T13:50:11;15.00;99.90
22716;DHT22;11525;51.152;4.456;2023-08-06T13:52:36;14.90;99.90
22716;DHT22;11525;51.152;4.456;2023-08-06T13:55:02;14.90;99.90
22716;DHT22;11525;51.152;4.456;2023-08-06T13:57:29;15.00;99.90
22716;DHT22;11525;51.152;4.456;2023-08-06T13:59:55;14.80;99.90
22716;DHT22;11525;51.152;4.456;2023-08-06T14:02:22;15.00;99.90
22716;DHT22;11525;51.152;4.456;2023-08-06T14:04:48;14.90;99.90
22716;DHT22;11525;51.152;4.456;2023-08-06T14:07:13;15.00;99.90
22716;DHT22;11525;51.152;4.456;2023-08-06T14:09:39;15.10;99.90
22716;DHT22;11525;51.152;4.456;2023-08-06T14:12:06;15.30;99.90
22716;DHT22;11525;51.152;4.456;2023-08-06T14:14:31;15.00;99.90
22716;DHT22;11525;51.152;4.456;2023-08-06T14:16:57;15.10;99.90
22716;DHT22;11525;51.152;4.456;2023-08-06T14:19:23;15.10;99.90
22716;DHT22;11525;51.152;4.456;2023-08-06T14:21:49;15.20;99.90
22716;DHT22;11525;51.152;4.456;2023-08-06T14:24:15;15.20;99.90
22716;DHT22;11525;51.152;4.456;2023-08-06T14:26:41;15.30;99.90
22716;DHT22;11525;51.152;4.456;2023-08-06T14:29:06;15.10;99.90
22716;DHT22;11525;51.152;4.456;2023-08-06T14:31:32;15.30;99.90
22716;DHT22;11525;51.152;4.456;2023-08-06T14:33:58;15.30;99.90
22716;DHT22;11525;51.152;4.456;2023-08-06T14:36:23;15.30;99.90
22716;DHT22;11525;51.152;4.456;2023-08-06T14:38:49;15.40;99.90
22716;DHT22;11525;51.152;4.456;2023-08-06T14:41:15;15.40;99.90
22716;DHT22;11525;51.152;4.456;2023-08-06T14:43:40;15.60;99.90
22716;DHT22;11525;51.152;4.456;2023-08-06T14:46:06;15.70;99.90
22716;DHT22;11525;51.152;4.456;2023-08-06T14:48:31;15.70;99.90
22716;DHT22;11525;51.152;4.456;2023-08-06T14:50:57;15.80;99.90
22716;DHT22;11525;51.152;4.456;2023-08-06T14:53:23;15.90;99.90
22716;DHT22;11525;51.152;4.456;2023-08-06T14:55:48;16.10;99.90
22716;DHT22;11525;51.152;4.456;2023-08-06T14:58:14;16.20;99.90
22716;DHT22;11525;51.152;4.456;2023-08-06T15:00:40;16.30;99.90
22716;DHT22;11525;51.152;4.456;2023-08-06T15:03:05;16.40;99.90
22716;DHT22;11525;51.152;4.456;2023-08-06T15:05:31;16.50;99.90
22716;DHT22;11525;51.152;4.456;2023-08-06T15:07:57;16.40;99.90
22716;DHT22;11525;51.152;4.456;2023-08-06T15:10:23;16.50;99.90
22716;DHT22;11525;51.152;4.456;2023-08-06T15:12:48;16.50;99.90
22716;DHT22;11525;51.152;4.456;2023-08-06T15:15:14;16.50;99.90
22716;DHT22;11525;51.152;4.456;2023-08-06T15:17:40;16.50;99.90
22716;DHT22;11525;51.152;4.456;2023-08-06T15:20:06;16.60;99.90
22716;DHT22;11525;51.152;4.456;2023-08-06T15:22:32;16.60;99.90
22716;DHT22;11525;51.152;4.456;2023-08-06T15:25:01;16.40;99.90
22716;DHT22;11525;51.152;4.456;2023-08-06T15:27:28;16.50;99.90
22716;DHT22;11525;51.152;4.456;2023-08-06T15:29:54;16.50;99.90
22716;DHT22;11525;51.152;4.456;2023-08-06T15:32:19;16.50;99.90
22716;DHT22;11525;51.152;4.456;2023-08-06T15:34:46;16.50;99.90
22716;DHT22;11525;51.152;4.456;2023-08-06T15:37:13;16.10;99.90